Andrews Air Force Base
KADW : now visible

Airfield :











YOU CAN JOIN US ON...

 
LOGIN :

Register | Disclaimer

   EN    FR    IT 

 









Legend :    VFR   Marginal VFR   IFR   Intensive IFR   Very Intensive IFR
Visi :
Ceiling :
>= 8 km
>= 3000ft
5 to 8 km
1000 to 3000 ft
1500m to 5 km
500 to 1000 ft
800 to 1500m
200 to 500 ft
< 800m
< 200 ft
Symbols :   Thunderstorms  Fog  Heavy snow  Heavy precipitations  Wind > 20 kt






- Airport Elevation : 280 ft


KADW - Andrews Air Force Base

CURRENT METAR :
  • 191356Z AUTO 33008KT 10SM SCT095 06/M06 A3031 RMK AO2 SLP272 T00611065 $

EXPIRED METARs :
  • 191256Z AUTO 32013KT 10SM OVC090 06/M05 A3028 RMK AO2 SLP262 T00631048 $

TAF COR TAF KADW
Valid from the 19 at 09:00 until the 20 at 15:00 UTC


190946Z 1909/2015 34012G25KT 9999 SCT040 SCT140 QNH3014INS
BECMG 1913/1914 33012KT 9999 NSW FEW210 QNH3019INS
BECMG 2000/2001 34006KT 9999 SCT120 BKN210 QNH3032INS TX11/1921Z TN02/2009Z



MET'MAP, your aeronautical weather chart ! - Copyright ORBIFLY December 2007 - Disclaimer

ORBIFLY MET'MAP TEAM :

Programming & Development : Alexandra Zaïnal
Concept & original design : Baudouin d'Aumeries
Assistance for programming : Marc-Olivier Méhu
Technical & hardware support : Manuel Goepfert

Contact : metmap@orbifly.com




SOURCES & CREDITS :

   NOAA       Earth
Advisory